sensor_id;sensor_type;location;lat;lon;timestamp;P1;durP1;ratioP1;P2;durP2;ratioP2
39612;SDS011;25303;48.896;13.342;2022-08-19T00:01:05;9.13;;;6.03;;
39612;SDS011;25303;48.896;13.342;2022-08-19T00:03:49;7.85;;;5.90;;
39612;SDS011;25303;48.896;13.342;2022-08-19T00:06:32;7.95;;;5.90;;
39612;SDS011;25303;48.896;13.342;2022-08-19T00:09:17;9.40;;;6.88;;
39612;SDS011;25303;48.896;13.342;2022-08-19T00:12:02;9.75;;;6.75;;
39612;SDS011;25303;48.896;13.342;2022-08-19T00:14:47;10.37;;;6.77;;
39612;SDS011;25303;48.896;13.342;2022-08-19T00:17:30;7.07;;;5.60;;
39612;SDS011;25303;48.896;13.342;2022-08-19T00:20:14;7.70;;;5.22;;
39612;SDS011;25303;48.896;13.342;2022-08-19T00:23:00;5.70;;;4.50;;
39612;SDS011;25303;48.896;13.342;2022-08-19T00:25:46;6.95;;;5.28;;
39612;SDS011;25303;48.896;13.342;2022-08-19T00:28:29;5.43;;;4.72;;
39612;SDS011;25303;48.896;13.342;2022-08-19T00:31:17;6.07;;;4.50;;
39612;SDS011;25303;48.896;13.342;2022-08-19T00:34:01;5.15;;;4.13;;
39612;SDS011;25303;48.896;13.342;2022-08-19T00:36:44;5.72;;;3.80;;
39612;SDS011;25303;48.896;13.342;2022-08-19T00:39:28;5.38;;;3.85;;
39612;SDS011;25303;48.896;13.342;2022-08-19T00:42:11;4.45;;;3.53;;
39612;SDS011;25303;48.896;13.342;2022-08-19T00:44:57;6.03;;;4.13;;
39612;SDS011;25303;48.896;13.342;2022-08-19T00:47:41;5.78;;;4.05;;
39612;SDS011;25303;48.896;13.342;2022-08-19T00:50:24;5.40;;;4.00;;
39612;SDS011;25303;48.896;13.342;2022-08-19T00:53:08;5.07;;;4.20;;
39612;SDS011;25303;48.896;13.342;2022-08-19T00:55:52;7.57;;;5.13;;
39612;SDS011;25303;48.896;13.342;2022-08-19T00:58:38;6.88;;;4.95;;
39612;SDS011;25303;48.896;13.342;2022-08-19T01:01:22;5.38;;;4.43;;
39612;SDS011;25303;48.896;13.342;2022-08-19T01:04:06;6.10;;;4.40;;
39612;SDS011;25303;48.896;13.342;2022-08-19T01:06:50;6.10;;;5.38;;
39612;SDS011;25303;48.896;13.342;2022-08-19T01:09:33;8.32;;;6.90;;
39612;SDS011;25303;48.896;13.342;2022-08-19T01:12:16;8.75;;;6.68;;
39612;SDS011;25303;48.896;13.342;2022-08-19T01:15:00;7.65;;;5.65;;
39612;SDS011;25303;48.896;13.342;2022-08-19T01:17:44;8.43;;;6.28;;
39612;SDS011;25303;48.896;13.342;2022-08-19T01:20:29;7.85;;;6.35;;
39612;SDS011;25303;48.896;13.342;2022-08-19T01:23:15;8.25;;;5.72;;
39612;SDS011;25303;48.896;13.342;2022-08-19T01:25:58;7.47;;;5.28;;
39612;SDS011;25303;48.896;13.342;2022-08-19T01:28:43;7.20;;;4.90;;
39612;SDS011;25303;48.896;13.342;2022-08-19T01:31:28;6.75;;;5.43;;
39612;SDS011;25303;48.896;13.342;2022-08-19T01:34:13;9.63;;;6.65;;
39612;SDS011;25303;48.896;13.342;2022-08-19T01:36:56;10.30;;;7.63;;
39612;SDS011;25303;48.896;13.342;2022-08-19T01:39:41;8.23;;;6.60;;
39612;SDS011;25303;48.896;13.342;2022-08-19T01:42:25;8.20;;;6.72;;
39612;SDS011;25303;48.896;13.342;2022-08-19T01:45:11;6.75;;;6.00;;
39612;SDS011;25303;48.896;13.342;2022-08-19T01:47:54;9.50;;;7.25;;
39612;SDS011;25303;48.896;13.342;2022-08-19T01:50:43;8.63;;;6.13;;
39612;SDS011;25303;48.896;13.342;2022-08-19T01:53:26;6.18;;;5.38;;
39612;SDS011;25303;48.896;13.342;2022-08-19T01:56:15;8.05;;;5.72;;
39612;SDS011;25303;48.896;13.342;2022-08-19T01:58:59;11.05;;;6.72;;
39612;SDS011;25303;48.896;13.342;2022-08-19T02:01:46;9.05;;;6.85;;
39612;SDS011;25303;48.896;13.342;2022-08-19T02:04:29;9.95;;;7.45;;
39612;SDS011;25303;48.896;13.342;2022-08-19T02:07:12;8.57;;;6.57;;
39612;SDS011;25303;48.896;13.342;2022-08-19T02:09:55;9.90;;;7.10;;
39612;SDS011;25303;48.896;13.342;2022-08-19T02:12:40;11.30;;;7.90;;
39612;SDS011;25303;48.896;13.342;2022-08-19T02:15:24;10.15;;;7.90;;
39612;SDS011;25303;48.896;13.342;2022-08-19T02:18:07;11.07;;;8.77;;
39612;SDS011;25303;48.896;13.342;2022-08-19T02:20:50;14.52;;;8.23;;
39612;SDS011;25303;48.896;13.342;2022-08-19T02:23:33;10.95;;;8.07;;
39612;SDS011;25303;48.896;13.342;2022-08-19T02:26:17;10.40;;;8.23;;
39612;SDS011;25303;48.896;13.342;2022-08-19T02:29:02;8.57;;;6.32;;
39612;SDS011;25303;48.896;13.342;2022-08-19T02:31:45;10.38;;;8.20;;
39612;SDS011;25303;48.896;13.342;2022-08-19T02:34:28;10.20;;;8.05;;
39612;SDS011;25303;48.896;13.342;2022-08-19T02:37:12;10.35;;;7.82;;
39612;SDS011;25303;48.896;13.342;2022-08-19T02:40:10;12.15;;;8.95;;
39612;SDS011;25303;48.896;13.342;2022-08-19T02:42:54;14.38;;;11.02;;
39612;SDS011;25303;48.896;13.342;2022-08-19T02:45:39;15.93;;;11.90;;
39612;SDS011;25303;48.896;13.342;2022-08-19T02:48:23;13.30;;;10.93;;
39612;SDS011;25303;48.896;13.342;2022-08-19T02:51:08;16.70;;;11.45;;
39612;SDS011;25303;48.896;13.342;2022-08-19T02:53:51;13.85;;;11.57;;
39612;SDS011;25303;48.896;13.342;2022-08-19T02:56:35;34.40;;;13.63;;
39612;SDS011;25303;48.896;13.342;2022-08-19T02:59:18;62.28;;;15.13;;
39612;SDS011;25303;48.896;13.342;2022-08-19T03:02:05;28.13;;;13.18;;
39612;SDS011;25303;48.896;13.342;2022-08-19T03:04:48;14.55;;;11.10;;
39612;SDS011;25303;48.896;13.342;2022-08-19T03:07:31;18.05;;;12.30;;
39612;SDS011;25303;48.896;13.342;2022-08-19T03:10:14;11.93;;;9.90;;
39612;SDS011;25303;48.896;13.342;2022-08-19T03:12:57;11.45;;;8.38;;
39612;SDS011;25303;48.896;13.342;2022-08-19T03:15:46;15.40;;;11.30;;
39612;SDS011;25303;48.896;13.342;2022-08-19T03:18:31;15.82;;;12.70;;
39612;SDS011;25303;48.896;13.342;2022-08-19T03:21:15;29.88;;;11.38;;
39612;SDS011;25303;48.896;13.342;2022-08-19T03:24:00;13.70;;;11.52;;
39612;SDS011;25303;48.896;13.342;2022-08-19T03:26:46;11.73;;;9.65;;
39612;SDS011;25303;48.896;13.342;2022-08-19T03:29:32;15.43;;;11.60;;
39612;SDS011;25303;48.896;13.342;2022-08-19T03:32:24;16.63;;;13.10;;
39612;SDS011;25303;48.896;13.342;2022-08-19T03:35:15;25.98;;;12.27;;
39612;SDS011;25303;48.896;13.342;2022-08-19T03:37:58;17.75;;;11.63;;
39612;SDS011;25303;48.896;13.342;2022-08-19T03:40:41;16.50;;;12.35;;
39612;SDS011;25303;48.896;13.342;2022-08-19T03:43:25;16.27;;;12.10;;
39612;SDS011;25303;48.896;13.342;2022-08-19T03:46:10;17.58;;;12.32;;
39612;SDS011;25303;48.896;13.342;2022-08-19T03:48:55;24.30;;;10.85;;
39612;SDS011;25303;48.896;13.342;2022-08-19T03:51:41;12.00;;;9.88;;
39612;SDS011;25303;48.896;13.342;2022-08-19T03:54:25;13.70;;;11.38;;
39612;SDS011;25303;48.896;13.342;2022-08-19T03:57:10;13.20;;;10.27;;
39612;SDS011;25303;48.896;13.342;2022-08-19T03:59:53;14.10;;;10.75;;
39612;SDS011;25303;48.896;13.342;2022-08-19T04:02:53;12.80;;;9.75;;
39612;SDS011;25303;48.896;13.342;2022-08-19T04:05:39;17.48;;;10.23;;
39612;SDS011;25303;48.896;13.342;2022-08-19T04:08:23;10.70;;;8.93;;
39612;SDS011;25303;48.896;13.342;2022-08-19T04:11:07;13.20;;;10.73;;
39612;SDS011;25303;48.896;13.342;2022-08-19T04:13:51;14.07;;;10.87;;
39612;SDS011;25303;48.896;13.342;2022-08-19T04:16:35;21.20;;;12.48;;
39612;SDS011;25303;48.896;13.342;2022-08-19T04:19:19;13.05;;;10.93;;
39612;SDS011;25303;48.896;13.342;2022-08-19T04:22:04;14.00;;;10.60;;
39612;SDS011;25303;48.896;13.342;2022-08-19T04:24:49;16.63;;;11.57;;
39612;SDS011;25303;48.896;13.342;2022-08-19T04:27:32;14.35;;;11.05;;
39612;SDS011;25303;48.896;13.342;2022-08-19T04:30:15;13.65;;;9.68;;
39612;SDS011;25303;48.896;13.342;2022-08-19T04:32:59;51.45;;;15.27;;
39612;SDS011;25303;48.896;13.342;2022-08-19T04:35:43;16.75;;;12.05;;
39612;SDS011;25303;48.896;13.342;2022-08-19T04:38:29;17.90;;;12.98;;
39612;SDS011;25303;48.896;13.342;2022-08-19T04:41:14;15.32;;;11.32;;
39612;SDS011;25303;48.896;13.342;2022-08-19T04:44:14;14.35;;;11.15;;
39612;SDS011;25303;48.896;13.342;2022-08-19T04:47:00;14.07;;;10.50;;
39612;SDS011;25303;48.896;13.342;2022-08-19T04:49:51;23.15;;;10.27;;
39612;SDS011;25303;48.896;13.342;2022-08-19T04:52:34;11.95;;;9.27;;
39612;SDS011;25303;48.896;13.342;2022-08-19T04:55:18;12.68;;;9.60;;
39612;SDS011;25303;48.896;13.342;2022-08-19T04:58:02;10.88;;;8.35;;
39612;SDS011;25303;48.896;13.342;2022-08-19T05:00:45;12.82;;;9.88;;
39612;SDS011;25303;48.896;13.342;2022-08-19T05:03:29;12.82;;;9.68;;
39612;SDS011;25303;48.896;13.342;2022-08-19T05:06:16;16.30;;;8.18;;
39612;SDS011;25303;48.896;13.342;2022-08-19T05:09:01;13.07;;;10.93;;
39612;SDS011;25303;48.896;13.342;2022-08-19T05:11:46;12.95;;;10.50;;
39612;SDS011;25303;48.896;13.342;2022-08-19T05:14:32;256.60;;;14.90;;
39612;SDS011;25303;48.896;13.342;2022-08-19T05:17:15;11.65;;;9.18;;
39612;SDS011;25303;48.896;13.342;2022-08-19T05:20:18;10.35;;;8.25;;
39612;SDS011;25303;48.896;13.342;2022-08-19T05:23:19;9.77;;;8.15;;
39612;SDS011;25303;48.896;13.342;2022-08-19T05:26:03;10.88;;;9.10;;
39612;SDS011;25303;48.896;13.342;2022-08-19T05:28:47;12.77;;;9.95;;
39612;SDS011;25303;48.896;13.342;2022-08-19T05:31:36;18.15;;;8.00;;
39612;SDS011;25303;48.896;13.342;2022-08-19T05:34:23;18.25;;;9.85;;
39612;SDS011;25303;48.896;13.342;2022-08-19T05:37:07;21.75;;;9.20;;
39612;SDS011;25303;48.896;13.342;2022-08-19T05:39:51;11.98;;;9.77;;
39612;SDS011;25303;48.896;13.342;2022-08-19T05:42:34;13.80;;;9.27;;
39612;SDS011;25303;48.896;13.342;2022-08-19T05:45:17;10.88;;;7.90;;
39612;SDS011;25303;48.896;13.342;2022-08-19T05:48:02;12.18;;;9.13;;
39612;SDS011;25303;48.896;13.342;2022-08-19T05:50:45;10.85;;;9.05;;
39612;SDS011;25303;48.896;13.342;2022-08-19T05:53:31;12.80;;;9.73;;
39612;SDS011;25303;48.896;13.342;2022-08-19T05:56:17;14.68;;;8.05;;
39612;SDS011;25303;48.896;13.342;2022-08-19T05:59:02;10.87;;;8.60;;
39612;SDS011;25303;48.896;13.342;2022-08-19T06:01:46;8.03;;;7.07;;
39612;SDS011;25303;48.896;13.342;2022-08-19T06:04:33;8.50;;;6.57;;
39612;SDS011;25303;48.896;13.342;2022-08-19T06:07:16;6.90;;;5.93;;
39612;SDS011;25303;48.896;13.342;2022-08-19T06:10:00;7.95;;;6.28;;
39612;SDS011;25303;48.896;13.342;2022-08-19T06:12:44;8.00;;;6.20;;
39612;SDS011;25303;48.896;13.342;2022-08-19T06:15:27;8.50;;;6.95;;
39612;SDS011;25303;48.896;13.342;2022-08-19T06:18:10;5.38;;;4.70;;
39612;SDS011;25303;48.896;13.342;2022-08-19T06:20:55;5.32;;;4.53;;
39612;SDS011;25303;48.896;13.342;2022-08-19T06:23:38;4.85;;;3.60;;
39612;SDS011;25303;48.896;13.342;2022-08-19T06:26:22;8.00;;;6.57;;
39612;SDS011;25303;48.896;13.342;2022-08-19T06:29:06;5.80;;;4.87;;
39612;SDS011;25303;48.896;13.342;2022-08-19T06:32:04;8.35;;;6.70;;
39612;SDS011;25303;48.896;13.342;2022-08-19T06:34:47;6.60;;;5.38;;
39612;SDS011;25303;48.896;13.342;2022-08-19T06:37:32;10.52;;;7.93;;
39612;SDS011;25303;48.896;13.342;2022-08-19T06:40:15;14.98;;;10.23;;
39612;SDS011;25303;48.896;13.342;2022-08-19T06:42:58;72.88;;;16.42;;
39612;SDS011;25303;48.896;13.342;2022-08-19T06:45:46;19.45;;;12.75;;
39612;SDS011;25303;48.896;13.342;2022-08-19T06:48:29;20.92;;;11.63;;
39612;SDS011;25303;48.896;13.342;2022-08-19T06:51:18;14.23;;;9.82;;
39612;SDS011;25303;48.896;13.342;2022-08-19T06:54:04;13.82;;;10.25;;
39612;SDS011;25303;48.896;13.342;2022-08-19T06:57:00;12.13;;;8.80;;
39612;SDS011;25303;48.896;13.342;2022-08-19T06:59:44;12.77;;;9.18;;
39612;SDS011;25303;48.896;13.342;2022-08-19T07:02:27;12.68;;;8.85;;
39612;SDS011;25303;48.896;13.342;2022-08-19T07:05:11;12.32;;;8.63;;
39612;SDS011;25303;48.896;13.342;2022-08-19T07:07:54;10.38;;;7.45;;
39612;SDS011;25303;48.896;13.342;2022-08-19T07:10:45;10.75;;;7.25;;
39612;SDS011;25303;48.896;13.342;2022-08-19T07:13:29;10.18;;;7.75;;
39612;SDS011;25303;48.896;13.342;2022-08-19T07:16:18;9.02;;;7.07;;
39612;SDS011;25303;48.896;13.342;2022-08-19T07:19:09;7.53;;;5.85;;
39612;SDS011;25303;48.896;13.342;2022-08-19T07:22:00;13.25;;;8.95;;
39612;SDS011;25303;48.896;13.342;2022-08-19T07:24:44;9.88;;;7.18;;
39612;SDS011;25303;48.896;13.342;2022-08-19T07:27:33;11.77;;;8.77;;
39612;SDS011;25303;48.896;13.342;2022-08-19T07:30:16;13.68;;;9.60;;
39612;SDS011;25303;48.896;13.342;2022-08-19T07:32:59;13.63;;;10.27;;
39612;SDS011;25303;48.896;13.342;2022-08-19T07:35:44;11.30;;;8.85;;
39612;SDS011;25303;48.896;13.342;2022-08-19T07:38:27;11.52;;;8.77;;
39612;SDS011;25303;48.896;13.342;2022-08-19T07:41:11;11.20;;;7.93;;
39612;SDS011;25303;48.896;13.342;2022-08-19T07:43:56;13.38;;;10.27;;
39612;SDS011;25303;48.896;13.342;2022-08-19T07:46:41;9.85;;;7.70;;
39612;SDS011;25303;48.896;13.342;2022-08-19T07:49:29;12.82;;;9.30;;
39612;SDS011;25303;48.896;13.342;2022-08-19T07:52:13;12.00;;;8.88;;
39612;SDS011;25303;48.896;13.342;2022-08-19T07:54:58;10.82;;;8.10;;
39612;SDS011;25303;48.896;13.342;2022-08-19T07:57:45;13.90;;;9.85;;
39612;SDS011;25303;48.896;13.342;2022-08-19T08:00:29;12.45;;;9.05;;
39612;SDS011;25303;48.896;13.342;2022-08-19T08:03:12;14.43;;;9.98;;
39612;SDS011;25303;48.896;13.342;2022-08-19T08:05:56;14.57;;;10.23;;
39612;SDS011;25303;48.896;13.342;2022-08-19T08:08:57;13.57;;;10.05;;
39612;SDS011;25303;48.896;13.342;2022-08-19T08:12:08;13.48;;;9.80;;
39612;SDS011;25303;48.896;13.342;2022-08-19T08:15:13;13.02;;;9.63;;
39612;SDS011;25303;48.896;13.342;2022-08-19T08:18:01;15.43;;;11.40;;
39612;SDS011;25303;48.896;13.342;2022-08-19T08:20:44;15.25;;;10.63;;
39612;SDS011;25303;48.896;13.342;2022-08-19T08:23:27;16.50;;;11.40;;
39612;SDS011;25303;48.896;13.342;2022-08-19T08:26:11;15.90;;;12.20;;
39612;SDS011;25303;48.896;13.342;2022-08-19T08:28:56;17.38;;;13.50;;
39612;SDS011;25303;48.896;13.342;2022-08-19T08:31:40;17.45;;;12.27;;
39612;SDS011;25303;48.896;13.342;2022-08-19T08:34:25;16.17;;;12.07;;
39612;SDS011;25303;48.896;13.342;2022-08-19T08:37:08;17.42;;;12.13;;
39612;SDS011;25303;48.896;13.342;2022-08-19T08:39:51;15.10;;;11.38;;
39612;SDS011;25303;48.896;13.342;2022-08-19T08:42:36;14.23;;;9.67;;
39612;SDS011;25303;48.896;13.342;2022-08-19T08:45:27;14.77;;;11.45;;
39612;SDS011;25303;48.896;13.342;2022-08-19T08:48:24;13.80;;;10.82;;
39612;SDS011;25303;48.896;13.342;2022-08-19T08:51:14;12.90;;;9.80;;
39612;SDS011;25303;48.896;13.342;2022-08-19T08:54:02;13.10;;;9.35;;
39612;SDS011;25303;48.896;13.342;2022-08-19T08:56:50;11.93;;;8.93;;
39612;SDS011;25303;48.896;13.342;2022-08-19T08:59:36;12.93;;;10.48;;
39612;SDS011;25303;48.896;13.342;2022-08-19T09:02:22;12.27;;;9.40;;
39612;SDS011;25303;48.896;13.342;2022-08-19T09:05:06;12.25;;;8.77;;
39612;SDS011;25303;48.896;13.342;2022-08-19T09:08:00;9.50;;;7.85;;
39612;SDS011;25303;48.896;13.342;2022-08-19T09:10:49;10.77;;;8.55;;
39612;SDS011;25303;48.896;13.342;2022-08-19T09:13:38;10.30;;;7.95;;
39612;SDS011;25303;48.896;13.342;2022-08-19T09:16:30;8.10;;;6.70;;
39612;SDS011;25303;48.896;13.342;2022-08-19T09:19:13;8.90;;;7.53;;
39612;SDS011;25303;48.896;13.342;2022-08-19T09:22:03;10.23;;;8.32;;
39612;SDS011;25303;48.896;13.342;2022-08-19T09:24:48;10.70;;;8.17;;
39612;SDS011;25303;48.896;13.342;2022-08-19T09:27:33;10.23;;;7.72;;
39612;SDS011;25303;48.896;13.342;2022-08-19T09:30:24;9.13;;;7.18;;
39612;SDS011;25303;48.896;13.342;2022-08-19T09:33:11;11.00;;;8.63;;
39612;SDS011;25303;48.896;13.342;2022-08-19T09:36:01;10.75;;;8.55;;
39612;SDS011;25303;48.896;13.342;2022-08-19T09:38:49;9.32;;;7.47;;
39612;SDS011;25303;48.896;13.342;2022-08-19T09:41:33;11.45;;;8.57;;
39612;SDS011;25303;48.896;13.342;2022-08-19T09:44:16;10.02;;;8.07;;
39612;SDS011;25303;48.896;13.342;2022-08-19T09:47:02;12.20;;;9.77;;
39612;SDS011;25303;48.896;13.342;2022-08-19T09:49:46;16.13;;;12.32;;
39612;SDS011;25303;48.896;13.342;2022-08-19T09:52:30;15.43;;;11.93;;
39612;SDS011;25303;48.896;13.342;2022-08-19T09:55:13;15.35;;;12.18;;
39612;SDS011;25303;48.896;13.342;2022-08-19T09:58:02;16.90;;;12.90;;
39612;SDS011;25303;48.896;13.342;2022-08-19T10:00:46;19.45;;;15.57;;
39612;SDS011;25303;48.896;13.342;2022-08-19T10:03:32;17.10;;;13.02;;
39612;SDS011;25303;48.896;13.342;2022-08-19T10:06:16;15.90;;;13.07;;
39612;SDS011;25303;48.896;13.342;2022-08-19T10:09:21;16.07;;;12.20;;
39612;SDS011;25303;48.896;13.342;2022-08-19T10:12:15;13.30;;;10.50;;
39612;SDS011;25303;48.896;13.342;2022-08-19T10:15:02;16.63;;;12.43;;
39612;SDS011;25303;48.896;13.342;2022-08-19T10:17:47;17.17;;;13.50;;
39612;SDS011;25303;48.896;13.342;2022-08-19T10:20:35;15.98;;;11.10;;
39612;SDS011;25303;48.896;13.342;2022-08-19T10:23:20;14.80;;;11.57;;
39612;SDS011;25303;48.896;13.342;2022-08-19T10:26:04;12.48;;;9.50;;
39612;SDS011;25303;48.896;13.342;2022-08-19T10:31:33;17.88;;;13.95;;
39612;SDS011;25303;48.896;13.342;2022-08-19T10:34:37;21.10;;;16.67;;
39612;SDS011;25303;48.896;13.342;2022-08-19T10:37:29;22.95;;;17.08;;
39612;SDS011;25303;48.896;13.342;2022-08-19T10:40:13;16.00;;;13.10;;
39612;SDS011;25303;48.896;13.342;2022-08-19T10:42:56;16.00;;;12.52;;
39612;SDS011;25303;48.896;13.342;2022-08-19T10:45:39;16.13;;;13.45;;
39612;SDS011;25303;48.896;13.342;2022-08-19T10:48:34;14.50;;;11.35;;
39612;SDS011;25303;48.896;13.342;2022-08-19T10:51:17;15.23;;;11.90;;
39612;SDS011;25303;48.896;13.342;2022-08-19T10:54:29;14.38;;;11.63;;
39612;SDS011;25303;48.896;13.342;2022-08-19T10:57:29;17.80;;;13.43;;
39612;SDS011;25303;48.896;13.342;2022-08-19T11:00:32;16.25;;;12.15;;
39612;SDS011;25303;48.896;13.342;2022-08-19T11:03:17;16.33;;;12.95;;
39612;SDS011;25303;48.896;13.342;2022-08-19T11:06:03;15.15;;;12.07;;
39612;SDS011;25303;48.896;13.342;2022-08-19T11:08:48;13.88;;;9.43;;
39612;SDS011;25303;48.896;13.342;2022-08-19T11:11:31;11.68;;;9.63;;
39612;SDS011;25303;48.896;13.342;2022-08-19T11:14:20;13.30;;;9.23;;
39612;SDS011;25303;48.896;13.342;2022-08-19T11:17:07;9.25;;;8.20;;
39612;SDS011;25303;48.896;13.342;2022-08-19T11:19:50;11.38;;;9.50;;
39612;SDS011;25303;48.896;13.342;2022-08-19T11:22:34;11.25;;;8.90;;
39612;SDS011;25303;48.896;13.342;2022-08-19T11:25:22;9.55;;;7.72;;
39612;SDS011;25303;48.896;13.342;2022-08-19T11:28:05;7.57;;;6.00;;
39612;SDS011;25303;48.896;13.342;2022-08-19T11:30:48;7.80;;;6.82;;
39612;SDS011;25303;48.896;13.342;2022-08-19T11:33:31;11.07;;;8.43;;
39612;SDS011;25303;48.896;13.342;2022-08-19T11:36:15;8.93;;;6.95;;
39612;SDS011;25303;48.896;13.342;2022-08-19T11:39:00;8.27;;;6.28;;
39612;SDS011;25303;48.896;13.342;2022-08-19T11:41:44;7.32;;;5.82;;
39612;SDS011;25303;48.896;13.342;2022-08-19T11:44:28;5.82;;;4.55;;
39612;SDS011;25303;48.896;13.342;2022-08-19T11:47:12;5.55;;;4.47;;
39612;SDS011;25303;48.896;13.342;2022-08-19T11:49:55;4.93;;;3.83;;
39612;SDS011;25303;48.896;13.342;2022-08-19T11:52:38;5.47;;;4.38;;
39612;SDS011;25303;48.896;13.342;2022-08-19T11:55:23;5.53;;;4.00;;
39612;SDS011;25303;48.896;13.342;2022-08-19T11:58:06;4.55;;;3.67;;
39612;SDS011;25303;48.896;13.342;2022-08-19T12:00:59;4.85;;;3.40;;
39612;SDS011;25303;48.896;13.342;2022-08-19T12:03:43;4.32;;;2.70;;
39612;SDS011;25303;48.896;13.342;2022-08-19T12:09:13;5.10;;;3.00;;
39612;SDS011;25303;48.896;13.342;2022-08-19T12:11:58;4.55;;;3.80;;
39612;SDS011;25303;48.896;13.342;2022-08-19T12:14:42;4.55;;;3.10;;
39612;SDS011;25303;48.896;13.342;2022-08-19T12:17:26;3.53;;;3.23;;
39612;SDS011;25303;48.896;13.342;2022-08-19T12:20:11;4.18;;;3.58;;
39612;SDS011;25303;48.896;13.342;2022-08-19T12:22:57;5.30;;;3.63;;
39612;SDS011;25303;48.896;13.342;2022-08-19T12:25:43;4.72;;;3.70;;
39612;SDS011;25303;48.896;13.342;2022-08-19T12:28:32;3.95;;;3.25;;
39612;SDS011;25303;48.896;13.342;2022-08-19T12:33:58;4.72;;;3.70;;
39612;SDS011;25303;48.896;13.342;2022-08-19T12:36:44;4.78;;;4.10;;
39612;SDS011;25303;48.896;13.342;2022-08-19T12:39:27;4.90;;;3.80;;
39612;SDS011;25303;48.896;13.342;2022-08-19T12:42:10;4.95;;;4.28;;
39612;SDS011;25303;48.896;13.342;2022-08-19T12:44:56;4.60;;;3.72;;
39612;SDS011;25303;48.896;13.342;2022-08-19T12:47:40;4.22;;;3.67;;
39612;SDS011;25303;48.896;13.342;2022-08-19T12:50:26;4.28;;;3.45;;
39612;SDS011;25303;48.896;13.342;2022-08-19T12:53:10;4.45;;;3.25;;
39612;SDS011;25303;48.896;13.342;2022-08-19T12:55:54;3.92;;;3.53;;
39612;SDS011;25303;48.896;13.342;2022-08-19T12:58:38;3.97;;;3.33;;
39612;SDS011;25303;48.896;13.342;2022-08-19T13:01:34;5.13;;;3.50;;
39612;SDS011;25303;48.896;13.342;2022-08-19T13:07:01;3.80;;;2.75;;
39612;SDS011;25303;48.896;13.342;2022-08-19T13:09:44;4.03;;;3.00;;
39612;SDS011;25303;48.896;13.342;2022-08-19T13:12:27;3.60;;;2.45;;
39612;SDS011;25303;48.896;13.342;2022-08-19T13:15:11;3.60;;;2.20;;
39612;SDS011;25303;48.896;13.342;2022-08-19T13:17:57;2.90;;;2.30;;
39612;SDS011;25303;48.896;13.342;2022-08-19T13:20:40;3.67;;;2.60;;
39612;SDS011;25303;48.896;13.342;2022-08-19T13:23:33;2.35;;;2.10;;
39612;SDS011;25303;48.896;13.342;2022-08-19T13:29:00;3.92;;;2.20;;
39612;SDS011;25303;48.896;13.342;2022-08-19T13:32:01;3.28;;;2.70;;
39612;SDS011;25303;48.896;13.342;2022-08-19T13:35:04;4.85;;;3.15;;
39612;SDS011;25303;48.896;13.342;2022-08-19T13:37:48;4.82;;;3.00;;
39612;SDS011;25303;48.896;13.342;2022-08-19T13:40:31;2.92;;;2.30;;
39612;SDS011;25303;48.896;13.342;2022-08-19T13:43:19;3.47;;;2.67;;
39612;SDS011;25303;48.896;13.342;2022-08-19T13:46:08;3.30;;;2.85;;
39612;SDS011;25303;48.896;13.342;2022-08-19T13:48:54;4.05;;;3.10;;
39612;SDS011;25303;48.896;13.342;2022-08-19T13:51:39;3.40;;;2.80;;
39612;SDS011;25303;48.896;13.342;2022-08-19T13:54:22;3.30;;;2.75;;
39612;SDS011;25303;48.896;13.342;2022-08-19T13:57:05;3.47;;;2.53;;
39612;SDS011;25303;48.896;13.342;2022-08-19T13:59:48;3.72;;;2.80;;
39612;SDS011;25303;48.896;13.342;2022-08-19T14:02:31;3.17;;;2.40;;
39612;SDS011;25303;48.896;13.342;2022-08-19T14:05:16;3.25;;;2.40;;
39612;SDS011;25303;48.896;13.342;2022-08-19T14:08:01;3.63;;;2.58;;
39612;SDS011;25303;48.896;13.342;2022-08-19T14:10:45;3.30;;;2.30;;
39612;SDS011;25303;48.896;13.342;2022-08-19T14:13:28;4.43;;;2.38;;
39612;SDS011;25303;48.896;13.342;2022-08-19T14:16:13;3.70;;;2.38;;
39612;SDS011;25303;48.896;13.342;2022-08-19T14:18:56;3.03;;;2.70;;
39612;SDS011;25303;48.896;13.342;2022-08-19T14:21:39;3.72;;;2.70;;
39612;SDS011;25303;48.896;13.342;2022-08-19T14:24:24;3.40;;;2.70;;
39612;SDS011;25303;48.896;13.342;2022-08-19T14:29:50;3.20;;;2.75;;
39612;SDS011;25303;48.896;13.342;2022-08-19T14:32:34;3.60;;;2.47;;
39612;SDS011;25303;48.896;13.342;2022-08-19T14:35:17;4.30;;;3.10;;
39612;SDS011;25303;48.896;13.342;2022-08-19T14:38:00;4.10;;;2.70;;
39612;SDS011;25303;48.896;13.342;2022-08-19T14:40:45;3.95;;;3.00;;
39612;SDS011;25303;48.896;13.342;2022-08-19T14:43:30;2.92;;;2.50;;
39612;SDS011;25303;48.896;13.342;2022-08-19T14:46:13;2.83;;;2.53;;
39612;SDS011;25303;48.896;13.342;2022-08-19T14:48:57;3.80;;;2.67;;
39612;SDS011;25303;48.896;13.342;2022-08-19T14:51:40;2.85;;;2.55;;
39612;SDS011;25303;48.896;13.342;2022-08-19T14:54:23;3.17;;;2.88;;
39612;SDS011;25303;48.896;13.342;2022-08-19T14:57:12;3.38;;;2.67;;
39612;SDS011;25303;48.896;13.342;2022-08-19T14:59:56;3.72;;;2.63;;
39612;SDS011;25303;48.896;13.342;2022-08-19T15:02:39;3.70;;;2.60;;
39612;SDS011;25303;48.896;13.342;2022-08-19T15:05:23;2.60;;;2.38;;
39612;SDS011;25303;48.896;13.342;2022-08-19T15:08:06;3.60;;;2.58;;
39612;SDS011;25303;48.896;13.342;2022-08-19T15:10:49;2.60;;;2.30;;
39612;SDS011;25303;48.896;13.342;2022-08-19T15:13:33;3.40;;;3.10;;
39612;SDS011;25303;48.896;13.342;2022-08-19T15:16:17;3.67;;;2.50;;
39612;SDS011;25303;48.896;13.342;2022-08-19T15:19:00;4.38;;;2.60;;
39612;SDS011;25303;48.896;13.342;2022-08-19T15:21:43;3.10;;;2.50;;
39612;SDS011;25303;48.896;13.342;2022-08-19T15:24:26;5.05;;;3.35;;
39612;SDS011;25303;48.896;13.342;2022-08-19T15:27:09;3.80;;;3.00;;
39612;SDS011;25303;48.896;13.342;2022-08-19T15:29:54;3.08;;;2.58;;
39612;SDS011;25303;48.896;13.342;2022-08-19T15:32:42;4.10;;;3.53;;
39612;SDS011;25303;48.896;13.342;2022-08-19T15:35:29;4.78;;;3.70;;
39612;SDS011;25303;48.896;13.342;2022-08-19T15:38:13;4.88;;;3.60;;
39612;SDS011;25303;48.896;13.342;2022-08-19T15:41:00;5.95;;;4.22;;
39612;SDS011;25303;48.896;13.342;2022-08-19T15:43:59;3.85;;;3.33;;
39612;SDS011;25303;48.896;13.342;2022-08-19T15:46:45;4.05;;;3.47;;
39612;SDS011;25303;48.896;13.342;2022-08-19T15:49:29;4.50;;;3.65;;
39612;SDS011;25303;48.896;13.342;2022-08-19T15:52:12;4.97;;;3.97;;
39612;SDS011;25303;48.896;13.342;2022-08-19T15:54:55;5.78;;;4.07;;
39612;SDS011;25303;48.896;13.342;2022-08-19T15:57:39;7.00;;;4.03;;
39612;SDS011;25303;48.896;13.342;2022-08-19T16:01:01;6.50;;;4.93;;
39612;SDS011;25303;48.896;13.342;2022-08-19T16:04:06;5.90;;;4.55;;
39612;SDS011;25303;48.896;13.342;2022-08-19T16:07:07;6.35;;;5.35;;
39612;SDS011;25303;48.896;13.342;2022-08-19T16:09:50;6.03;;;4.60;;
39612;SDS011;25303;48.896;13.342;2022-08-19T16:12:33;4.85;;;4.35;;
39612;SDS011;25303;48.896;13.342;2022-08-19T16:15:16;9.30;;;5.97;;
39612;SDS011;25303;48.896;13.342;2022-08-19T16:18:01;5.40;;;4.68;;
39612;SDS011;25303;48.896;13.342;2022-08-19T16:20:46;7.80;;;5.80;;
39612;SDS011;25303;48.896;13.342;2022-08-19T16:23:30;7.60;;;6.18;;
39612;SDS011;25303;48.896;13.342;2022-08-19T16:26:14;7.25;;;6.10;;
39612;SDS011;25303;48.896;13.342;2022-08-19T16:28:58;7.43;;;5.68;;